sensor_id;sensor_type;location;lat;lon;timestamp;pressure;altitude;pressure_sealevel;temperature;humidity
70902;BME280;58548;47.210;8.618;2023-06-05T00:02:15;94142.63;;;23.86;35.58
70902;BME280;58548;47.210;8.618;2023-06-05T00:04:41;94139.72;;;23.82;35.35
70902;BME280;58548;47.210;8.618;2023-06-05T00:07:11;94109.41;;;23.57;35.43
70902;BME280;58548;47.210;8.618;2023-06-05T00:09:39;94141.38;;;23.57;35.50
70902;BME280;58548;47.210;8.618;2023-06-05T00:12:05;94139.28;;;23.49;35.42
70902;BME280;58548;47.210;8.618;2023-06-05T00:14:32;94043.97;;;22.79;36.16
70902;BME280;58548;47.210;8.618;2023-06-05T00:16:58;94040.78;;;22.77;36.20
70902;BME280;58548;47.210;8.618;2023-06-05T00:19:26;94108.91;;;23.19;36.10
70902;BME280;58548;47.210;8.618;2023-06-05T00:21:52;94133.41;;;23.31;36.39
70902;BME280;58548;47.210;8.618;2023-06-05T00:24:21;94023.47;;;22.53;36.58
70902;BME280;58548;47.210;8.618;2023-06-05T00:26:49;94130.22;;;23.19;36.48
70902;BME280;58548;47.210;8.618;2023-06-05T00:29:17;94141.94;;;23.18;36.42
70902;BME280;58548;47.210;8.618;2023-06-05T00:31:43;94035.44;;;22.51;36.83
70902;BME280;58548;47.210;8.618;2023-06-05T00:34:10;94040.78;;;22.56;36.84
70902;BME280;58548;47.210;8.618;2023-06-05T00:36:35;94099.34;;;22.82;36.78
70902;BME280;58548;47.210;8.618;2023-06-05T00:39:05;94135.56;;;22.98;36.46
70902;BME280;58548;47.210;8.618;2023-06-05T00:41:31;94134.47;;;22.94;36.62
70902;BME280;58548;47.210;8.618;2023-06-05T00:44:02;94133.44;;;22.85;36.31
70902;BME280;58548;47.210;8.618;2023-06-05T00:46:30;94049.75;;;22.29;36.55
70902;BME280;58548;47.210;8.618;2023-06-05T00:48:56;94131.28;;;22.77;36.30
70902;BME280;58548;47.210;8.618;2023-06-05T00:51:25;94126.47;;;22.68;36.42
70902;BME280;58548;47.210;8.618;2023-06-05T00:53:51;94139.25;;;22.66;36.81
70902;BME280;58548;47.210;8.618;2023-06-05T00:56:18;94134.19;;;22.65;36.85
70902;BME280;58548;47.210;8.618;2023-06-05T00:58:47;94100.88;;;22.41;36.70
70902;BME280;58548;47.210;8.618;2023-06-05T01:01:16;94047.59;;;22.00;36.97
70902;BME280;58548;47.210;8.618;2023-06-05T01:03:44;94133.13;;;22.55;36.73
70902;BME280;58548;47.210;8.618;2023-06-05T01:06:10;94121.13;;;22.48;36.73
70902;BME280;58548;47.210;8.618;2023-06-05T01:08:45;94041.19;;;21.96;36.97
70902;BME280;58548;47.210;8.618;2023-06-05T01:11:43;94130.72;;;22.43;36.75
70902;BME280;58548;47.210;8.618;2023-06-05T01:14:26;94039.78;;;21.67;36.90
70902;BME280;58548;47.210;8.618;2023-06-05T01:16:54;94132.72;;;22.16;36.73
70902;BME280;58548;47.210;8.618;2023-06-05T01:19:21;94037.81;;;21.52;37.36
70902;BME280;58548;47.210;8.618;2023-06-05T01:21:53;94131.31;;;21.97;37.53
70902;BME280;58548;47.210;8.618;2023-06-05T01:24:21;94026.53;;;21.24;37.63
70902;BME280;58548;47.210;8.618;2023-06-05T01:27:05;94137.16;;;21.94;37.53
70902;BME280;58548;47.210;8.618;2023-06-05T01:30:01;94132.63;;;21.95;37.93
70902;BME280;58548;47.210;8.618;2023-06-05T01:32:45;94088.34;;;21.58;37.71
70902;BME280;58548;47.210;8.618;2023-06-05T01:35:16;94136.31;;;21.89;37.61
70902;BME280;58548;47.210;8.618;2023-06-05T01:37:46;94137.94;;;21.90;37.67
70902;BME280;58548;47.210;8.618;2023-06-05T01:40:16;94044.00;;;21.20;37.67
70902;BME280;58548;47.210;8.618;2023-06-05T01:42:46;94060.59;;;21.38;37.69
70902;BME280;58548;47.210;8.618;2023-06-05T01:45:15;94125.66;;;21.78;38.07
70902;BME280;58548;47.210;8.618;2023-06-05T01:47:46;94127.25;;;21.79;38.04
70902;BME280;58548;47.210;8.618;2023-06-05T01:50:16;94031.28;;;21.17;38.24
70902;BME280;58548;47.210;8.618;2023-06-05T01:52:43;94036.59;;;21.22;37.98
70902;BME280;58548;47.210;8.618;2023-06-05T01:55:20;94128.03;;;21.75;38.05
70902;BME280;58548;47.210;8.618;2023-06-05T01:57:51;94109.88;;;21.61;37.52
70902;BME280;58548;47.210;8.618;2023-06-05T02:00:17;94096.28;;;21.52;37.68
70902;BME280;58548;47.210;8.618;2023-06-05T02:02:44;94118.16;;;21.70;37.68
70902;BME280;58548;47.210;8.618;2023-06-05T02:05:12;94114.91;;;21.58;37.23
70902;BME280;58548;47.210;8.618;2023-06-05T02:07:40;94121.81;;;21.59;37.29
70902;BME280;58548;47.210;8.618;2023-06-05T02:10:09;94093.53;;;21.37;37.93
70902;BME280;58548;47.210;8.618;2023-06-05T02:12:36;94107.34;;;21.39;38.00
70902;BME280;58548;47.210;8.618;2023-06-05T02:15:08;94133.44;;;21.47;37.93
70902;BME280;58548;47.210;8.618;2023-06-05T02:17:39;94057.97;;;21.00;38.01
70902;BME280;58548;47.210;8.618;2023-06-05T02:22:40;93949.97;;;20.25;38.39
70902;BME280;58548;47.210;8.618;2023-06-05T02:25:10;94111.53;;;21.30;37.98
70902;BME280;58548;47.210;8.618;2023-06-05T02:27:39;94120.59;;;21.34;37.71
70902;BME280;58548;47.210;8.618;2023-06-05T02:30:05;94093.91;;;21.13;38.00
70902;BME280;58548;47.210;8.618;2023-06-05T02:32:32;94111.50;;;21.24;37.42
70902;BME280;58548;47.210;8.618;2023-06-05T02:34:58;94112.53;;;21.18;37.44
70902;BME280;58548;47.210;8.618;2023-06-05T02:37:25;94016.50;;;20.56;37.74
70902;BME280;58548;47.210;8.618;2023-06-05T02:39:52;94021.50;;;20.53;38.00
70902;BME280;58548;47.210;8.618;2023-06-05T02:42:22;94019.13;;;20.51;37.81
70902;BME280;58548;47.210;8.618;2023-06-05T02:44:50;94104.72;;;21.01;38.13
70902;BME280;58548;47.210;8.618;2023-06-05T02:47:16;94111.13;;;21.11;38.24
70902;BME280;58548;47.210;8.618;2023-06-05T02:49:48;94110.25;;;21.00;37.85
70902;BME280;58548;47.210;8.618;2023-06-05T02:52:13;94098.03;;;20.93;38.11
70902;BME280;58548;47.210;8.618;2023-06-05T02:54:39;94105.69;;;20.90;37.94
70902;BME280;58548;47.210;8.618;2023-06-05T02:57:07;94116.59;;;20.93;37.96
70902;BME280;58548;47.210;8.618;2023-06-05T02:59:34;94026.66;;;20.32;37.86
70902;BME280;58548;47.210;8.618;2023-06-05T03:02:07;94120.75;;;20.84;37.50
70902;BME280;58548;47.210;8.618;2023-06-05T03:04:33;94106.09;;;20.76;37.79
70902;BME280;58548;47.210;8.618;2023-06-05T03:07:01;93990.53;;;19.98;37.64
70902;BME280;58548;47.210;8.618;2023-06-05T03:09:31;94074.78;;;20.46;37.64
70902;BME280;58548;47.210;8.618;2023-06-05T03:11:59;94022.47;;;20.09;37.42
70902;BME280;58548;47.210;8.618;2023-06-05T03:14:27;94080.78;;;20.36;37.73
70902;BME280;58548;47.210;8.618;2023-06-05T03:16:59;94030.91;;;20.06;37.81
70902;BME280;58548;47.210;8.618;2023-06-05T03:19:25;94123.25;;;20.69;38.38
70902;BME280;58548;47.210;8.618;2023-06-05T03:21:58;94113.59;;;20.57;38.20
70902;BME280;58548;47.210;8.618;2023-06-05T03:24:26;94103.69;;;20.47;38.25
70902;BME280;58548;47.210;8.618;2023-06-05T03:26:53;94123.75;;;20.66;38.42
70902;BME280;58548;47.210;8.618;2023-06-05T03:29:19;94124.81;;;20.64;38.83
70902;BME280;58548;47.210;8.618;2023-06-05T03:31:45;94120.00;;;20.61;38.34
70902;BME280;58548;47.210;8.618;2023-06-05T03:34:13;94049.53;;;20.11;38.61
70902;BME280;58548;47.210;8.618;2023-06-05T03:36:39;94131.16;;;20.63;38.68
70902;BME280;58548;47.210;8.618;2023-06-05T03:39:07;94021.25;;;19.94;38.51
70902;BME280;58548;47.210;8.618;2023-06-05T03:41:32;94030.06;;;20.00;38.31
70902;BME280;58548;47.210;8.618;2023-06-05T03:43:58;94038.25;;;19.98;38.36
70902;BME280;58548;47.210;8.618;2023-06-05T03:46:24;94025.47;;;19.90;37.83
70902;BME280;58548;47.210;8.618;2023-06-05T03:48:54;94131.66;;;20.60;38.37
70902;BME280;58548;47.210;8.618;2023-06-05T03:51:25;94054.78;;;20.06;38.04
70902;BME280;58548;47.210;8.618;2023-06-05T03:54:02;94143.34;;;20.59;38.26
70902;BME280;58548;47.210;8.618;2023-06-05T03:56:31;94138.03;;;20.59;38.63
70902;BME280;58548;47.210;8.618;2023-06-05T03:59:02;94035.06;;;19.96;38.42
70902;BME280;58548;47.210;8.618;2023-06-05T04:01:37;94045.97;;;20.00;38.74
70902;BME280;58548;47.210;8.618;2023-06-05T04:04:06;94134.31;;;20.60;38.50
70902;BME280;58548;47.210;8.618;2023-06-05T04:06:33;94138.56;;;20.61;38.24
70902;BME280;58548;47.210;8.618;2023-06-05T04:09:02;94141.78;;;20.63;38.19
70902;BME280;58548;47.210;8.618;2023-06-05T04:11:36;94126.84;;;20.57;38.35
70902;BME280;58548;47.210;8.618;2023-06-05T04:14:07;94146.03;;;20.64;38.97
70902;BME280;58548;47.210;8.618;2023-06-05T04:16:39;94046.25;;;20.03;38.26
70902;BME280;58548;47.210;8.618;2023-06-05T04:19:10;94081.00;;;20.29;38.81
70902;BME280;58548;47.210;8.618;2023-06-05T04:21:38;94152.00;;;20.77;39.21
70902;BME280;58548;47.210;8.618;2023-06-05T04:24:05;94145.66;;;20.78;38.62
70902;BME280;58548;47.210;8.618;2023-06-05T04:26:36;94066.38;;;20.27;39.00
70902;BME280;58548;47.210;8.618;2023-06-05T04:29:02;94028.19;;;20.00;39.03
70902;BME280;58548;47.210;8.618;2023-06-05T04:31:36;94050.22;;;20.28;38.73
70902;BME280;58548;47.210;8.618;2023-06-05T04:34:05;94127.38;;;20.82;39.01
70902;BME280;58548;47.210;8.618;2023-06-05T04:36:37;94147.44;;;21.00;39.22
70902;BME280;58548;47.210;8.618;2023-06-05T04:39:05;94146.91;;;21.03;39.14
70902;BME280;58548;47.210;8.618;2023-06-05T04:41:36;94095.72;;;20.75;39.20
70902;BME280;58548;47.210;8.618;2023-06-05T04:44:07;94139.00;;;21.08;39.33
70902;BME280;58548;47.210;8.618;2023-06-05T04:46:33;94151.88;;;21.27;39.20
70902;BME280;58548;47.210;8.618;2023-06-05T04:49:09;94047.38;;;20.68;38.68
70902;BME280;58548;47.210;8.618;2023-06-05T04:51:35;94159.41;;;21.40;39.20
70902;BME280;58548;47.210;8.618;2023-06-05T04:54:05;94030.91;;;20.66;38.90
70902;BME280;58548;47.210;8.618;2023-06-05T04:56:33;94160.03;;;21.52;38.53
70902;BME280;58548;47.210;8.618;2023-06-05T04:59:02;94138.19;;;21.45;38.76
70902;BME280;58548;47.210;8.618;2023-06-05T05:01:29;94147.38;;;21.65;38.93
70902;BME280;58548;47.210;8.618;2023-06-05T05:03:57;94055.69;;;21.19;38.64
70902;BME280;58548;47.210;8.618;2023-06-05T05:06:24;94154.38;;;21.87;38.65
70902;BME280;58548;47.210;8.618;2023-06-05T05:08:52;94146.94;;;21.83;38.96
70902;BME280;58548;47.210;8.618;2023-06-05T05:11:20;94133.13;;;21.87;38.76
70902;BME280;58548;47.210;8.618;2023-06-05T05:13:46;94155.00;;;22.04;39.20
70902;BME280;58548;47.210;8.618;2023-06-05T05:16:15;94139.59;;;22.01;39.25
70902;BME280;58548;47.210;8.618;2023-06-05T05:18:43;94139.63;;;22.11;38.76
70902;BME280;58548;47.210;8.618;2023-06-05T05:21:12;94147.91;;;22.25;38.83
70902;BME280;58548;47.210;8.618;2023-06-05T05:23:38;94154.09;;;22.41;38.75
70902;BME280;58548;47.210;8.618;2023-06-05T05:26:12;94085.63;;;22.11;38.96
70902;BME280;58548;47.210;8.618;2023-06-05T05:28:38;94137.91;;;22.53;38.70
70902;BME280;58548;47.210;8.618;2023-06-05T05:31:06;94055.84;;;22.14;38.60
70902;BME280;58548;47.210;8.618;2023-06-05T05:33:32;94062.81;;;22.31;38.61
70902;BME280;58548;47.210;8.618;2023-06-05T05:35:58;94159.53;;;23.03;38.43
70902;BME280;58548;47.210;8.618;2023-06-05T05:38:26;94162.19;;;23.19;38.40
70902;BME280;58548;47.210;8.618;2023-06-05T05:40:52;94095.59;;;22.93;38.33
70902;BME280;58548;47.210;8.618;2023-06-05T05:43:19;94169.09;;;23.56;38.00
70902;BME280;58548;47.210;8.618;2023-06-05T05:45:47;94159.47;;;23.76;38.21
70902;BME280;58548;47.210;8.618;2023-06-05T05:48:18;94163.16;;;24.06;38.58
70902;BME280;58548;47.210;8.618;2023-06-05T05:50:44;94163.28;;;24.41;38.29
70902;BME280;58548;47.210;8.618;2023-06-05T05:53:12;94163.38;;;24.75;37.67
70902;BME280;58548;47.210;8.618;2023-06-05T05:55:38;94163.13;;;25.11;37.01
70902;BME280;58548;47.210;8.618;2023-06-05T05:58:06;94163.91;;;25.47;36.85
70902;BME280;58548;47.210;8.618;2023-06-05T06:00:32;94151.59;;;25.75;36.11
70902;BME280;58548;47.210;8.618;2023-06-05T06:03:00;94168.06;;;26.17;35.59
70902;BME280;58548;47.210;8.618;2023-06-05T06:05:28;94159.66;;;26.48;35.28
70902;BME280;58548;47.210;8.618;2023-06-05T06:07:55;94159.94;;;26.85;34.27
70902;BME280;58548;47.210;8.618;2023-06-05T06:10:24;94158.63;;;27.20;34.73
70902;BME280;58548;47.210;8.618;2023-06-05T06:12:52;94140.09;;;27.38;33.64
70902;BME280;58548;47.210;8.618;2023-06-05T06:15:19;94083.69;;;27.43;32.43
70902;BME280;58548;47.210;8.618;2023-06-05T06:17:44;94157.72;;;28.19;31.00
70902;BME280;58548;47.210;8.618;2023-06-05T06:20:12;94092.69;;;28.08;30.68
70902;BME280;58548;47.210;8.618;2023-06-05T06:22:43;94165.69;;;28.89;30.85
70902;BME280;58548;47.210;8.618;2023-06-05T06:25:12;94150.78;;;29.06;30.45
70902;BME280;58548;47.210;8.618;2023-06-05T06:27:40;94154.44;;;29.32;29.36
70902;BME280;58548;47.210;8.618;2023-06-05T06:30:11;94167.28;;;29.58;29.53
70902;BME280;58548;47.210;8.618;2023-06-05T06:32:40;94090.28;;;29.40;29.49
70902;BME280;58548;47.210;8.618;2023-06-05T06:35:08;94064.91;;;29.55;28.62
70902;BME280;58548;47.210;8.618;2023-06-05T06:37:42;94168.16;;;30.48;28.45
70902;BME280;58548;47.210;8.618;2023-06-05T06:40:08;94161.53;;;30.72;28.28
70902;BME280;58548;47.210;8.618;2023-06-05T06:42:35;94168.22;;;31.01;27.48
70902;BME280;58548;47.210;8.618;2023-06-05T06:45:02;94072.91;;;30.71;27.41
70902;BME280;58548;47.210;8.618;2023-06-05T06:47:30;94104.91;;;31.25;26.67
70902;BME280;58548;47.210;8.618;2023-06-05T06:49:56;94174.00;;;31.91;26.50
70902;BME280;58548;47.210;8.618;2023-06-05T06:52:25;94175.34;;;32.15;25.27
70902;BME280;58548;47.210;8.618;2023-06-05T06:54:55;94147.97;;;32.16;25.38
70902;BME280;58548;47.210;8.618;2023-06-05T06:57:24;94169.31;;;32.48;25.40
70902;BME280;58548;47.210;8.618;2023-06-05T06:59:50;94150.66;;;32.55;24.77
70902;BME280;58548;47.210;8.618;2023-06-05T07:02:23;94085.06;;;32.16;24.23
70902;BME280;58548;47.210;8.618;2023-06-05T07:04:50;94172.41;;;32.89;24.17
70902;BME280;58548;47.210;8.618;2023-06-05T07:07:17;94030.50;;;32.01;23.09
70902;BME280;58548;47.210;8.618;2023-06-05T07:09:44;94105.66;;;32.59;22.95
70902;BME280;58548;47.210;8.618;2023-06-05T07:12:14;94102.72;;;32.64;22.36
70902;BME280;58548;47.210;8.618;2023-06-05T07:14:47;94099.56;;;32.62;22.03
70902;BME280;58548;47.210;8.618;2023-06-05T07:17:18;94163.88;;;32.78;22.22
70902;BME280;58548;47.210;8.618;2023-06-05T07:19:46;94162.13;;;32.73;22.07
70902;BME280;58548;47.210;8.618;2023-06-05T07:22:15;94176.00;;;32.72;21.57
70902;BME280;58548;47.210;8.618;2023-06-05T07:24:42;94095.13;;;32.07;22.28
70902;BME280;58548;47.210;8.618;2023-06-05T07:27:11;94164.19;;;32.55;21.78
70902;BME280;58548;47.210;8.618;2023-06-05T07:29:39;94103.03;;;32.12;21.83
70902;BME280;58548;47.210;8.618;2023-06-05T07:32:05;94178.81;;;32.75;21.86
70902;BME280;58548;47.210;8.618;2023-06-05T07:34:32;94163.72;;;32.83;20.72
70902;BME280;58548;47.210;8.618;2023-06-05T07:37:01;94179.41;;;32.90;21.27
70902;BME280;58548;47.210;8.618;2023-06-05T07:39:27;94082.97;;;32.52;21.01
70902;BME280;58548;47.210;8.618;2023-06-05T07:41:53;94100.09;;;32.77;20.67
70902;BME280;58548;47.210;8.618;2023-06-05T07:44:22;94163.47;;;33.31;20.51
70902;BME280;58548;47.210;8.618;2023-06-05T07:46:49;94175.69;;;33.71;20.17
70902;BME280;58548;47.210;8.618;2023-06-05T07:49:15;94088.66;;;33.47;19.98
70902;BME280;58548;47.210;8.618;2023-06-05T07:51:45;94144.25;;;34.16;19.72
70902;BME280;58548;47.210;8.618;2023-06-05T07:54:14;94094.59;;;34.11;19.93
70902;BME280;58548;47.210;8.618;2023-06-05T07:56:45;94175.28;;;34.93;18.73
70902;BME280;58548;47.210;8.618;2023-06-05T07:59:14;94175.81;;;35.11;19.57
70902;BME280;58548;47.210;8.618;2023-06-05T08:01:44;94106.69;;;34.92;18.92
70902;BME280;58548;47.210;8.618;2023-06-05T08:04:17;94176.34;;;35.57;18.72
70902;BME280;58548;47.210;8.618;2023-06-05T08:06:49;94169.91;;;35.78;18.02
70902;BME280;58548;47.210;8.618;2023-06-05T08:09:18;94154.72;;;35.77;17.79
70902;BME280;58548;47.210;8.618;2023-06-05T08:11:46;94168.16;;;36.02;18.55
70902;BME280;58548;47.210;8.618;2023-06-05T08:14:12;94171.00;;;36.21;17.87
70902;BME280;58548;47.210;8.618;2023-06-05T08:16:38;94144.66;;;36.26;17.67
70902;BME280;58548;47.210;8.618;2023-06-05T08:19:04;94104.00;;;36.13;17.48
70902;BME280;58548;47.210;8.618;2023-06-05T08:21:33;94071.13;;;36.18;17.00
70902;BME280;58548;47.210;8.618;2023-06-05T08:24:03;94144.09;;;36.88;16.78
70902;BME280;58548;47.210;8.618;2023-06-05T08:26:34;94161.63;;;37.26;16.71
70902;BME280;58548;47.210;8.618;2023-06-05T08:29:04;94167.56;;;37.51;16.39
70902;BME280;58548;47.210;8.618;2023-06-05T08:31:30;94097.88;;;37.27;16.13
70902;BME280;58548;47.210;8.618;2023-06-05T08:34:02;94095.84;;;37.44;16.23
70902;BME280;58548;47.210;8.618;2023-06-05T08:36:28;94159.81;;;37.96;15.15
70902;BME280;58548;47.210;8.618;2023-06-05T08:38:56;94137.75;;;37.82;15.36
70902;BME280;58548;47.210;8.618;2023-06-05T08:41:23;94091.31;;;37.51;14.85
70902;BME280;58548;47.210;8.618;2023-06-05T08:43:49;94146.91;;;37.93;14.96
70902;BME280;58548;47.210;8.618;2023-06-05T08:46:15;94149.91;;;38.08;15.14
70902;BME280;58548;47.210;8.618;2023-06-05T08:48:43;94143.22;;;38.28;14.71
70902;BME280;58548;47.210;8.618;2023-06-05T08:51:15;94130.81;;;38.35;14.77
70902;BME280;58548;47.210;8.618;2023-06-05T08:53:44;94070.72;;;38.00;14.37
70902;BME280;58548;47.210;8.618;2023-06-05T08:56:13;94079.94;;;37.92;14.44
70902;BME280;58548;47.210;8.618;2023-06-05T08:58:41;94114.44;;;38.35;14.46
70902;BME280;58548;47.210;8.618;2023-06-05T09:01:11;94148.16;;;38.73;13.86
70902;BME280;58548;47.210;8.618;2023-06-05T09:03:40;94081.56;;;38.47;13.76
70902;BME280;58548;47.210;8.618;2023-06-05T09:06:06;94149.03;;;39.08;14.77
70902;BME280;58548;47.210;8.618;2023-06-05T09:08:35;94137.44;;;39.18;14.42
70902;BME280;58548;47.210;8.618;2023-06-05T09:11:27;94088.16;;;39.07;14.55
70902;BME280;58548;47.210;8.618;2023-06-05T09:13:57;94094.38;;;39.38;14.08
70902;BME280;58548;47.210;8.618;2023-06-05T09:19:08;94063.72;;;39.56;13.23
70902;BME280;58548;47.210;8.618;2023-06-05T09:21:46;94141.94;;;40.16;12.94
70902;BME280;58548;47.210;8.618;2023-06-05T09:24:18;94151.06;;;40.31;13.81
70902;BME280;58548;47.210;8.618;2023-06-05T09:26:52;94141.69;;;40.32;13.30
70902;BME280;58548;47.210;8.618;2023-06-05T09:29:39;94142.50;;;40.33;12.58
70902;BME280;58548;47.210;8.618;2023-06-05T09:34:41;94054.75;;;40.07;13.21
70902;BME280;58548;47.210;8.618;2023-06-05T09:37:09;94144.16;;;40.48;13.66
70902;BME280;58548;47.210;8.618;2023-06-05T09:39:41;94140.94;;;40.35;12.86
70902;BME280;58548;47.210;8.618;2023-06-05T09:42:11;94114.00;;;40.41;13.50
70902;BME280;58548;47.210;8.618;2023-06-05T09:44:37;94101.47;;;40.36;12.92
70902;BME280;58548;47.210;8.618;2023-06-05T09:47:08;94141.16;;;40.64;13.41
70902;BME280;58548;47.210;8.618;2023-06-05T09:52:10;94130.13;;;40.57;13.15
70902;BME280;58548;47.210;8.618;2023-06-05T09:54:38;94138.03;;;40.69;12.86
70902;BME280;58548;47.210;8.618;2023-06-05T09:57:07;94124.75;;;40.72;13.42
70902;BME280;58548;47.210;8.618;2023-06-05T09:59:56;94136.53;;;40.79;13.53
70902;BME280;58548;47.210;8.618;2023-06-05T10:02:33;94063.25;;;40.51;13.77
70902;BME280;58548;47.210;8.618;2023-06-05T10:05:08;94119.50;;;41.15;13.10
70902;BME280;58548;47.210;8.618;2023-06-05T10:07:38;94070.16;;;41.08;13.87
70902;BME280;58548;47.210;8.618;2023-06-05T10:10:08;94067.88;;;41.24;13.22
70902;BME280;58548;47.210;8.618;2023-06-05T10:12:35;94130.63;;;41.66;12.38
70902;BME280;58548;47.210;8.618;2023-06-05T10:15:02;94060.81;;;41.12;12.27
70902;BME280;58548;47.210;8.618;2023-06-05T10:17:31;94121.19;;;41.63;12.63
70902;BME280;58548;47.210;8.618;2023-06-05T10:19:57;94044.81;;;41.25;12.59
70902;BME280;58548;47.210;8.618;2023-06-05T10:22:26;94113.38;;;41.76;12.36
70902;BME280;58548;47.210;8.618;2023-06-05T10:25:01;94064.44;;;41.53;13.00
70902;BME280;58548;47.210;8.618;2023-06-05T10:35:56;94126.63;;;41.41;13.04
70902;BME280;58548;47.210;8.618;2023-06-05T10:38:27;94108.63;;;41.44;12.63
70902;BME280;58548;47.210;8.618;2023-06-05T10:40:54;94048.34;;;41.29;12.17
70902;BME280;58548;47.210;8.618;2023-06-05T10:43:35;94120.09;;;42.00;12.54
70902;BME280;58548;47.210;8.618;2023-06-05T10:49:18;94115.00;;;42.42;12.33
70902;BME280;58548;47.210;8.618;2023-06-05T10:51:50;94114.16;;;42.60;11.07
70902;BME280;58548;47.210;8.618;2023-06-05T10:59:25;94059.31;;;42.53;11.76
70902;BME280;58548;47.210;8.618;2023-06-05T11:15:14;94068.72;;;42.44;11.51
70902;BME280;58548;47.210;8.618;2023-06-05T11:17:45;94098.13;;;42.47;11.78
70902;BME280;58548;47.210;8.618;2023-06-05T11:30:38;94085.00;;;40.99;12.34
70902;BME280;58548;47.210;8.618;2023-06-05T11:33:18;94076.28;;;40.72;13.17
70902;BME280;58548;47.210;8.618;2023-06-05T11:35:50;94091.06;;;40.60;13.28
70902;BME280;58548;47.210;8.618;2023-06-05T11:38:22;94084.88;;;40.11;13.49
70902;BME280;58548;47.210;8.618;2023-06-05T11:40:50;94077.25;;;39.83;13.48
70902;BME280;58548;47.210;8.618;2023-06-05T11:43:18;94005.97;;;39.19;13.67
70902;BME280;58548;47.210;8.618;2023-06-05T11:45:51;94078.41;;;39.40;13.13
70902;BME280;58548;47.210;8.618;2023-06-05T11:48:21;94011.38;;;38.78;13.85
70902;BME280;58548;47.210;8.618;2023-06-05T11:50:57;94085.16;;;39.19;14.35
70902;BME280;58548;47.210;8.618;2023-06-05T11:53:30;94039.50;;;38.82;14.86
70902;BME280;58548;47.210;8.618;2023-06-05T11:55:58;94088.88;;;39.00;14.10
70902;BME280;58548;47.210;8.618;2023-06-05T11:58:35;94009.66;;;38.36;14.19
70902;BME280;58548;47.210;8.618;2023-06-05T12:03:32;93998.06;;;37.85;14.38
70902;BME280;58548;47.210;8.618;2023-06-05T12:06:03;94003.19;;;37.63;15.04
70902;BME280;58548;47.210;8.618;2023-06-05T12:08:32;94003.47;;;37.58;15.38
70902;BME280;58548;47.210;8.618;2023-06-05T12:11:27;94067.16;;;37.96;15.49
70902;BME280;58548;47.210;8.618;2023-06-05T12:13:54;94068.31;;;37.95;16.00
70902;BME280;58548;47.210;8.618;2023-06-05T12:16:35;93990.06;;;37.46;15.71
70902;BME280;58548;47.210;8.618;2023-06-05T12:21:38;94069.25;;;37.83;15.18
70902;BME280;58548;47.210;8.618;2023-06-05T12:24:05;94069.09;;;37.72;15.41
70902;BME280;58548;47.210;8.618;2023-06-05T12:26:52;94062.06;;;37.71;15.48
70902;BME280;58548;47.210;8.618;2023-06-05T12:29:28;94059.59;;;37.63;15.61
70902;BME280;58548;47.210;8.618;2023-06-05T12:32:01;94061.69;;;37.50;15.48
70902;BME280;58548;47.210;8.618;2023-06-05T12:34:40;94030.16;;;37.25;14.94
70902;BME280;58548;47.210;8.618;2023-06-05T12:37:27;93967.16;;;36.61;15.25
70902;BME280;58548;47.210;8.618;2023-06-05T12:39:56;94064.44;;;37.30;15.86
70902;BME280;58548;47.210;8.618;2023-06-05T12:42:22;93976.41;;;36.99;15.54
70902;BME280;58548;47.210;8.618;2023-06-05T12:44:48;93988.81;;;37.20;15.22
70902;BME280;58548;47.210;8.618;2023-06-05T12:47:17;94025.22;;;37.54;14.61
70902;BME280;58548;47.210;8.618;2023-06-05T12:49:43;94030.41;;;37.63;14.96
70902;BME280;58548;47.210;8.618;2023-06-05T12:52:11;94015.03;;;37.28;14.48
70902;BME280;58548;47.210;8.618;2023-06-05T12:54:39;94009.16;;;37.26;14.47
70902;BME280;58548;47.210;8.618;2023-06-05T12:57:07;94045.81;;;37.32;14.05
70902;BME280;58548;47.210;8.618;2023-06-05T12:59:36;94040.06;;;37.14;14.68
70902;BME280;58548;47.210;8.618;2023-06-05T13:02:04;93964.53;;;36.68;14.94
70902;BME280;58548;47.210;8.618;2023-06-05T13:04:30;93944.09;;;36.55;14.69
70902;BME280;58548;47.210;8.618;2023-06-05T13:06:58;93958.56;;;36.59;14.99
70902;BME280;58548;47.210;8.618;2023-06-05T13:09:26;94017.06;;;37.11;14.37
70902;BME280;58548;47.210;8.618;2023-06-05T13:11:58;93949.06;;;36.72;14.78
70902;BME280;58548;47.210;8.618;2023-06-05T13:14:34;94027.59;;;37.36;15.00
70902;BME280;58548;47.210;8.618;2023-06-05T13:17:00;94013.69;;;37.41;14.69
70902;BME280;58548;47.210;8.618;2023-06-05T13:19:26;93998.38;;;37.33;14.29
70902;BME280;58548;47.210;8.618;2023-06-05T13:21:57;93945.00;;;36.43;14.28
70902;BME280;58548;47.210;8.618;2023-06-05T13:24:25;94017.88;;;36.92;15.22
70902;BME280;58548;47.210;8.618;2023-06-05T13:26:53;93913.88;;;36.40;15.18
70902;BME280;58548;47.210;8.618;2023-06-05T13:29:21;94024.78;;;36.90;14.36
70902;BME280;58548;47.210;8.618;2023-06-05T13:31:50;93949.50;;;36.15;14.15
70902;BME280;58548;47.210;8.618;2023-06-05T13:34:20;93983.44;;;36.41;14.64
70902;BME280;58548;47.210;8.618;2023-06-05T13:36:48;94023.59;;;36.67;15.07
70902;BME280;58548;47.210;8.618;2023-06-05T13:39:17;94003.34;;;36.45;14.87
70902;BME280;58548;47.210;8.618;2023-06-05T13:41:46;93921.06;;;35.93;15.19
70902;BME280;58548;47.210;8.618;2023-06-05T13:44:11;94007.72;;;36.50;14.86
70902;BME280;58548;47.210;8.618;2023-06-05T13:46:37;94014.09;;;36.58;15.09
70902;BME280;58548;47.210;8.618;2023-06-05T13:49:05;94002.09;;;36.23;15.61
70902;BME280;58548;47.210;8.618;2023-06-05T13:51:32;93927.69;;;35.76;15.51
70902;BME280;58548;47.210;8.618;2023-06-05T13:54:02;93982.59;;;36.01;14.88
70902;BME280;58548;47.210;8.618;2023-06-05T13:56:31;93989.78;;;35.93;14.95
70902;BME280;58548;47.210;8.618;2023-06-05T13:58:57;93999.50;;;35.95;14.80
70902;BME280;58548;47.210;8.618;2023-06-05T14:01:25;93991.13;;;35.84;15.04
70902;BME280;58548;47.210;8.618;2023-06-05T14:03:56;93919.50;;;35.24;15.23
70902;BME280;58548;47.210;8.618;2023-06-05T14:06:27;93978.19;;;35.61;16.19
70902;BME280;58548;47.210;8.618;2023-06-05T14:08:52;93992.09;;;35.75;15.38